sensor_id;sensor_type;location;lat;lon;timestamp;pressure;altitude;pressure_sealevel;temperature;humidity
46942;BME280;32676;52.630;4.896;2024-01-07T00:00:48;97424.59;;;1.01;80.80
46942;BME280;32676;52.630;4.896;2024-01-07T00:03:15;97417.78;;;1.00;80.68
46942;BME280;32676;52.630;4.896;2024-01-07T00:05:41;97412.75;;;0.97;80.76
46942;BME280;32676;52.630;4.896;2024-01-07T00:08:08;97423.91;;;0.98;80.98
46942;BME280;32676;52.630;4.896;2024-01-07T00:10:34;97416.91;;;1.00;80.81
46942;BME280;32676;52.630;4.896;2024-01-07T00:13:01;97410.31;;;0.94;80.83
46942;BME280;32676;52.630;4.896;2024-01-07T00:15:30;97414.41;;;0.98;80.80
46942;BME280;32676;52.630;4.896;2024-01-07T00:17:58;97417.91;;;0.97;80.87
46942;BME280;32676;52.630;4.896;2024-01-07T00:20:25;97406.75;;;0.97;81.04
46942;BME280;32676;52.630;4.896;2024-01-07T00:22:51;97410.22;;;0.95;81.05
46942;BME280;32676;52.630;4.896;2024-01-07T00:25:18;97411.06;;;0.96;80.93
46942;BME280;32676;52.630;4.896;2024-01-07T00:27:44;97412.88;;;0.94;80.86
46942;BME280;32676;52.630;4.896;2024-01-07T00:30:11;97397.38;;;0.94;80.71
46942;BME280;32676;52.630;4.896;2024-01-07T00:32:38;97405.13;;;0.94;80.62
46942;BME280;32676;52.630;4.896;2024-01-07T00:35:06;97407.72;;;0.94;80.44
46942;BME280;32676;52.630;4.896;2024-01-07T00:37:33;97412.00;;;0.95;80.50
46942;BME280;32676;52.630;4.896;2024-01-07T00:40:00;97414.56;;;0.95;80.34
46942;BME280;32676;52.630;4.896;2024-01-07T00:42:26;97407.72;;;0.94;80.47
46942;BME280;32676;52.630;4.896;2024-01-07T00:44:53;97407.72;;;0.94;80.49
46942;BME280;32676;52.630;4.896;2024-01-07T00:47:19;97408.66;;;0.93;80.54
46942;BME280;32676;52.630;4.896;2024-01-07T00:49:46;97402.69;;;0.91;80.54
46942;BME280;32676;52.630;4.896;2024-01-07T00:52:14;97390.84;;;0.87;80.41
46942;BME280;32676;52.630;4.896;2024-01-07T00:54:40;97390.00;;;0.86;80.63
46942;BME280;32676;52.630;4.896;2024-01-07T00:57:07;97379.81;;;0.83;80.70
46942;BME280;32676;52.630;4.896;2024-01-07T00:59:33;97379.81;;;0.83;80.78
46942;BME280;32676;52.630;4.896;2024-01-07T01:02:00;97379.81;;;0.83;81.06
46942;BME280;32676;52.630;4.896;2024-01-07T01:04:26;97386.59;;;0.86;80.97
46942;BME280;32676;52.630;4.896;2024-01-07T01:06:53;97389.19;;;0.86;80.93
46942;BME280;32676;52.630;4.896;2024-01-07T01:09:20;97383.25;;;0.84;81.01
46942;BME280;32676;52.630;4.896;2024-01-07T01:11:47;97371.53;;;0.76;81.02
46942;BME280;32676;52.630;4.896;2024-01-07T01:14:15;97409.69;;;0.89;81.01
46942;BME280;32676;52.630;4.896;2024-01-07T01:16:41;97397.75;;;0.86;81.08
46942;BME280;32676;52.630;4.896;2024-01-07T01:19:08;97398.59;;;0.87;81.05
46942;BME280;32676;52.630;4.896;2024-01-07T01:21:34;97394.50;;;0.83;81.15
46942;BME280;32676;52.630;4.896;2024-01-07T01:24:01;97385.97;;;0.81;81.10
46942;BME280;32676;52.630;4.896;2024-01-07T01:26:29;97383.38;;;0.81;81.16
46942;BME280;32676;52.630;4.896;2024-01-07T01:28:55;97387.63;;;0.82;81.26
46942;BME280;32676;52.630;4.896;2024-01-07T01:31:22;97401.34;;;0.84;81.11
46942;BME280;32676;52.630;4.896;2024-01-07T01:33:48;97403.75;;;0.87;81.40
46942;BME280;32676;52.630;4.896;2024-01-07T01:36:14;97388.69;;;0.77;81.22
46942;BME280;32676;52.630;4.896;2024-01-07T01:38:41;97401.34;;;0.84;81.41
46942;BME280;32676;52.630;4.896;2024-01-07T01:41:08;97397.00;;;0.84;81.12
46942;BME280;32676;52.630;4.896;2024-01-07T01:43:36;97402.09;;;0.86;81.23
46942;BME280;32676;52.630;4.896;2024-01-07T01:46:02;97397.97;;;0.82;81.27
46942;BME280;32676;52.630;4.896;2024-01-07T01:48:29;97411.50;;;0.87;81.31
46942;BME280;32676;52.630;4.896;2024-01-07T01:50:57;97406.50;;;0.84;81.40
46942;BME280;32676;52.630;4.896;2024-01-07T01:53:24;97382.63;;;0.79;81.35
46942;BME280;32676;52.630;4.896;2024-01-07T01:55:51;97397.97;;;0.82;81.64
46942;BME280;32676;52.630;4.896;2024-01-07T01:58:19;97396.31;;;0.81;81.51
46942;BME280;32676;52.630;4.896;2024-01-07T02:00:48;97397.97;;;0.82;81.33
46942;BME280;32676;52.630;4.896;2024-01-07T02:03:16;97399.78;;;0.80;81.12
46942;BME280;32676;52.630;4.896;2024-01-07T02:05:42;97392.91;;;0.80;81.23
46942;BME280;32676;52.630;4.896;2024-01-07T02:08:10;97395.47;;;0.80;81.23
46942;BME280;32676;52.630;4.896;2024-01-07T02:10:37;97391.28;;;0.77;81.08
46942;BME280;32676;52.630;4.896;2024-01-07T02:13:04;97399.78;;;0.80;81.04
46942;BME280;32676;52.630;4.896;2024-01-07T02:15:30;97398.13;;;0.79;81.03
46942;BME280;32676;52.630;4.896;2024-01-07T02:17:58;97396.44;;;0.77;81.01
46942;BME280;32676;52.630;4.896;2024-01-07T02:20:25;97409.22;;;0.81;81.16
46942;BME280;32676;52.630;4.896;2024-01-07T02:22:51;97409.16;;;0.82;81.02
46942;BME280;32676;52.630;4.896;2024-01-07T02:25:20;97408.31;;;0.82;80.88
46942;BME280;32676;52.630;4.896;2024-01-07T02:27:46;97422.03;;;0.84;81.04
46942;BME280;32676;52.630;4.896;2024-01-07T02:30:13;97427.19;;;0.84;81.02
46942;BME280;32676;52.630;4.896;2024-01-07T02:32:39;97422.78;;;0.86;80.95
46942;BME280;32676;52.630;4.896;2024-01-07T02:35:06;97418.63;;;0.82;81.07
46942;BME280;32676;52.630;4.896;2024-01-07T02:37:34;97411.00;;;0.80;80.97
46942;BME280;32676;52.630;4.896;2024-01-07T02:40:00;97400.78;;;0.77;81.00
46942;BME280;32676;52.630;4.896;2024-01-07T02:42:30;97410.13;;;0.80;81.01
46942;BME280;32676;52.630;4.896;2024-01-07T02:44:56;97414.34;;;0.82;81.09
46942;BME280;32676;52.630;4.896;2024-01-07T02:47:23;97409.50;;;0.74;80.73
46942;BME280;32676;52.630;4.896;2024-01-07T02:49:49;97423.81;;;0.82;80.82
46942;BME280;32676;52.630;4.896;2024-01-07T02:52:16;97433.13;;;0.86;80.99
46942;BME280;32676;52.630;4.896;2024-01-07T02:54:42;97434.00;;;0.85;81.00
46942;BME280;32676;52.630;4.896;2024-01-07T02:57:09;97440.88;;;0.86;80.95
46942;BME280;32676;52.630;4.896;2024-01-07T02:59:37;97438.34;;;0.84;81.00
46942;BME280;32676;52.630;4.896;2024-01-07T03:02:03;97439.19;;;0.85;81.04
46942;BME280;32676;52.630;4.896;2024-01-07T03:04:30;97455.38;;;0.88;81.14
46942;BME280;32676;52.630;4.896;2024-01-07T03:06:56;97466.41;;;0.92;80.96
46942;BME280;32676;52.630;4.896;2024-01-07T03:09:23;97488.59;;;0.96;80.70
46942;BME280;32676;52.630;4.896;2024-01-07T03:11:49;97480.22;;;0.91;80.69
46942;BME280;32676;52.630;4.896;2024-01-07T03:14:16;97441.13;;;0.62;80.57
46942;BME280;32676;52.630;4.896;2024-01-07T03:16:46;97495.47;;;0.97;80.52
46942;BME280;32676;52.630;4.896;2024-01-07T03:19:13;97499.88;;;0.95;80.51
46942;BME280;32676;52.630;4.896;2024-01-07T03:21:39;97475.22;;;0.88;80.46
46942;BME280;32676;52.630;4.896;2024-01-07T03:24:06;97463.19;;;0.87;80.71
46942;BME280;32676;52.630;4.896;2024-01-07T03:26:33;97464.97;;;0.86;80.66
46942;BME280;32676;52.630;4.896;2024-01-07T03:29:00;97460.84;;;0.82;80.65
46942;BME280;32676;52.630;4.896;2024-01-07T03:31:27;97486.19;;;0.93;80.64
46942;BME280;32676;52.630;4.896;2024-01-07T03:33:55;97476.88;;;0.89;80.60
46942;BME280;32676;52.630;4.896;2024-01-07T03:36:22;97471.72;;;0.89;80.62
46942;BME280;32676;52.630;4.896;2024-01-07T03:38:49;97457.41;;;0.82;80.64
46942;BME280;32676;52.630;4.896;2024-01-07T03:41:16;97459.09;;;0.83;80.29
46942;BME280;32676;52.630;4.896;2024-01-07T03:43:44;97446.19;;;0.83;80.15
46942;BME280;32676;52.630;4.896;2024-01-07T03:46:10;97436.16;;;0.76;80.07
46942;BME280;32676;52.630;4.896;2024-01-07T03:48:37;97426.78;;;0.74;79.96
46942;BME280;32676;52.630;4.896;2024-01-07T03:51:05;97420.78;;;0.73;79.85
46942;BME280;32676;52.630;4.896;2024-01-07T03:53:32;97414.84;;;0.71;79.85
46942;BME280;32676;52.630;4.896;2024-01-07T03:55:58;97415.75;;;0.70;79.83
46942;BME280;32676;52.630;4.896;2024-01-07T03:58:25;97405.53;;;0.67;79.93
46942;BME280;32676;52.630;4.896;2024-01-07T04:00:52;97390.22;;;0.64;80.01
46942;BME280;32676;52.630;4.896;2024-01-07T04:03:18;97385.19;;;0.61;79.96
46942;BME280;32676;52.630;4.896;2024-01-07T04:05:45;97387.00;;;0.59;79.94
46942;BME280;32676;52.630;4.896;2024-01-07T04:08:13;97397.88;;;0.66;80.13
46942;BME280;32676;52.630;4.896;2024-01-07T04:10:41;97398.72;;;0.66;80.00
46942;BME280;32676;52.630;4.896;2024-01-07T04:13:08;97401.31;;;0.66;80.02
46942;BME280;32676;52.630;4.896;2024-01-07T04:15:34;97413.22;;;0.69;79.89
46942;BME280;32676;52.630;4.896;2024-01-07T04:18:01;97424.25;;;0.72;79.88
46942;BME280;32676;52.630;4.896;2024-01-07T04:20:28;97434.44;;;0.75;79.91
46942;BME280;32676;52.630;4.896;2024-01-07T04:22:55;97452.53;;;0.75;79.79
46942;BME280;32676;52.630;4.896;2024-01-07T04:25:23;97472.16;;;0.80;79.81
46942;BME280;32676;52.630;4.896;2024-01-07T04:27:50;97492.56;;;0.86;79.70
46942;BME280;32676;52.630;4.896;2024-01-07T04:30:16;97478.00;;;0.83;79.91
46942;BME280;32676;52.630;4.896;2024-01-07T04:32:43;97479.78;;;0.83;79.94
46942;BME280;32676;52.630;4.896;2024-01-07T04:35:09;97468.69;;;0.81;80.06
46942;BME280;32676;52.630;4.896;2024-01-07T04:37:37;97464.41;;;0.80;80.26
46942;BME280;32676;52.630;4.896;2024-01-07T04:40:04;97446.63;;;0.73;80.52
46942;BME280;32676;52.630;4.896;2024-01-07T04:42:32;97444.94;;;0.72;80.84
46942;BME280;32676;52.630;4.896;2024-01-07T04:44:59;97444.94;;;0.72;80.88
46942;BME280;32676;52.630;4.896;2024-01-07T04:47:29;97439.75;;;0.72;81.08
46942;BME280;32676;52.630;4.896;2024-01-07T04:49:56;97438.09;;;0.71;81.10
46942;BME280;32676;52.630;4.896;2024-01-07T04:52:24;97447.50;;;0.72;81.10
46942;BME280;32676;52.630;4.896;2024-01-07T04:54:50;97464.63;;;0.75;81.14
46942;BME280;32676;52.630;4.896;2024-01-07T04:57:17;97450.09;;;0.72;81.13
46942;BME280;32676;52.630;4.896;2024-01-07T04:59:45;97428.03;;;0.65;80.99
46942;BME280;32676;52.630;4.896;2024-01-07T05:02:12;97445.09;;;0.69;81.03
46942;BME280;32676;52.630;4.896;2024-01-07T05:04:39;97429.72;;;0.66;80.85
46942;BME280;32676;52.630;4.896;2024-01-07T05:07:05;97424.56;;;0.66;80.79
46942;BME280;32676;52.630;4.896;2024-01-07T05:09:32;97405.97;;;0.58;80.84
46942;BME280;32676;52.630;4.896;2024-01-07T05:11:59;97397.47;;;0.56;80.79
46942;BME280;32676;52.630;4.896;2024-01-07T05:14:25;97394.00;;;0.57;80.85
46942;BME280;32676;52.630;4.896;2024-01-07T05:16:54;97386.63;;;0.49;80.77
46942;BME280;32676;52.630;4.896;2024-01-07T05:19:21;97395.66;;;0.58;80.84
46942;BME280;32676;52.630;4.896;2024-01-07T05:21:47;97392.31;;;0.56;80.80
46942;BME280;32676;52.630;4.896;2024-01-07T05:24:14;97365.53;;;0.40;80.66
46942;BME280;32676;52.630;4.896;2024-01-07T05:26:42;97397.47;;;0.56;80.58
46942;BME280;32676;52.630;4.896;2024-01-07T05:29:09;97401.75;;;0.57;80.33
46942;BME280;32676;52.630;4.896;2024-01-07T05:31:36;97380.06;;;0.42;80.22
46942;BME280;32676;52.630;4.896;2024-01-07T05:34:04;97406.84;;;0.59;79.99
46942;BME280;32676;52.630;4.896;2024-01-07T05:36:31;97418.84;;;0.60;79.86
46942;BME280;32676;52.630;4.896;2024-01-07T05:38:57;97418.00;;;0.59;79.64
46942;BME280;32676;52.630;4.896;2024-01-07T05:41:24;97419.69;;;0.60;79.42
46942;BME280;32676;52.630;4.896;2024-01-07T05:43:50;97425.00;;;0.57;79.09
46942;BME280;32676;52.630;4.896;2024-01-07T05:46:17;97437.59;;;0.63;79.07
46942;BME280;32676;52.630;4.896;2024-01-07T05:48:45;97419.97;;;0.54;78.94
46942;BME280;32676;52.630;4.896;2024-01-07T05:51:13;97426.50;;;0.61;78.95
46942;BME280;32676;52.630;4.896;2024-01-07T05:53:40;97409.63;;;0.54;78.96
46942;BME280;32676;52.630;4.896;2024-01-07T05:56:07;97427.44;;;0.60;79.03
46942;BME280;32676;52.630;4.896;2024-01-07T05:58:33;97421.47;;;0.58;78.93
46942;BME280;32676;52.630;4.896;2024-01-07T06:00:59;97384.38;;;0.42;79.00
46942;BME280;32676;52.630;4.896;2024-01-07T06:03:26;97397.63;;;0.53;78.76
46942;BME280;32676;52.630;4.896;2024-01-07T06:05:53;97399.44;;;0.51;78.88
46942;BME280;32676;52.630;4.896;2024-01-07T06:08:21;97395.06;;;0.53;78.60
46942;BME280;32676;52.630;4.896;2024-01-07T06:10:47;97387.72;;;0.44;78.40
46942;BME280;32676;52.630;4.896;2024-01-07T06:13:14;97402.81;;;0.53;78.06
46942;BME280;32676;52.630;4.896;2024-01-07T06:15:40;97401.13;;;0.52;77.86
46942;BME280;32676;52.630;4.896;2024-01-07T06:18:06;97412.28;;;0.52;77.69
46942;BME280;32676;52.630;4.896;2024-01-07T06:20:33;97409.69;;;0.52;77.61
46942;BME280;32676;52.630;4.896;2024-01-07T06:23:00;97413.13;;;0.53;77.41
46942;BME280;32676;52.630;4.896;2024-01-07T06:25:27;97419.13;;;0.53;77.24
46942;BME280;32676;52.630;4.896;2024-01-07T06:27:55;97421.66;;;0.55;77.10
46942;BME280;32676;52.630;4.896;2024-01-07T06:30:21;97413.28;;;0.50;76.97
46942;BME280;32676;52.630;4.896;2024-01-07T06:32:48;97417.38;;;0.54;76.94
46942;BME280;32676;52.630;4.896;2024-01-07T06:35:14;97423.47;;;0.53;76.84
46942;BME280;32676;52.630;4.896;2024-01-07T06:37:41;97423.47;;;0.53;76.95
46942;BME280;32676;52.630;4.896;2024-01-07T06:40:08;97418.31;;;0.53;76.94
46942;BME280;32676;52.630;4.896;2024-01-07T06:42:38;97433.63;;;0.56;76.64
46942;BME280;32676;52.630;4.896;2024-01-07T06:45:05;97431.13;;;0.54;77.16
46942;BME280;32676;52.630;4.896;2024-01-07T06:47:32;97436.16;;;0.57;77.22
46942;BME280;32676;52.630;4.896;2024-01-07T06:49:58;97448.31;;;0.55;77.14
46942;BME280;32676;52.630;4.896;2024-01-07T06:52:25;97450.69;;;0.60;77.11
46942;BME280;32676;52.630;4.896;2024-01-07T06:54:51;97469.53;;;0.62;77.09
46942;BME280;32676;52.630;4.896;2024-01-07T06:57:18;97472.13;;;0.62;77.13
46942;BME280;32676;52.630;4.896;2024-01-07T06:59:46;97466.03;;;0.63;77.11
46942;BME280;32676;52.630;4.896;2024-01-07T07:02:12;97474.72;;;0.62;77.06
46942;BME280;32676;52.630;4.896;2024-01-07T07:04:39;97488.22;;;0.67;77.22
46942;BME280;32676;52.630;4.896;2024-01-07T07:07:04;97493.41;;;0.67;77.15
46942;BME280;32676;52.630;4.896;2024-01-07T07:09:31;97485.75;;;0.66;77.25
46942;BME280;32676;52.630;4.896;2024-01-07T07:11:58;97474.59;;;0.64;77.17
46942;BME280;32676;52.630;4.896;2024-01-07T07:14:24;97473.84;;;0.62;77.19
46942;BME280;32676;52.630;4.896;2024-01-07T07:16:52;97476.38;;;0.63;77.02
46942;BME280;32676;52.630;4.896;2024-01-07T07:19:19;97457.66;;;0.58;77.01
46942;BME280;32676;52.630;4.896;2024-01-07T07:21:45;97443.22;;;0.54;76.75
46942;BME280;32676;52.630;4.896;2024-01-07T07:24:12;97438.09;;;0.52;76.70
46942;BME280;32676;52.630;4.896;2024-01-07T07:26:38;97433.00;;;0.51;76.40
46942;BME280;32676;52.630;4.896;2024-01-07T07:29:06;97418.56;;;0.47;76.15
46942;BME280;32676;52.630;4.896;2024-01-07T07:31:34;97410.06;;;0.45;76.21
46942;BME280;32676;52.630;4.896;2024-01-07T07:34:03;97408.38;;;0.44;76.02
46942;BME280;32676;52.630;4.896;2024-01-07T07:36:30;97408.38;;;0.44;75.87
46942;BME280;32676;52.630;4.896;2024-01-07T07:38:56;97418.88;;;0.41;75.93
46942;BME280;32676;52.630;4.896;2024-01-07T07:41:23;97420.41;;;0.45;75.78
46942;BME280;32676;52.630;4.896;2024-01-07T07:43:49;97415.22;;;0.45;75.69
46942;BME280;32676;52.630;4.896;2024-01-07T07:46:16;97432.25;;;0.49;75.76
46942;BME280;32676;52.630;4.896;2024-01-07T07:48:42;97428.91;;;0.47;75.58
46942;BME280;32676;52.630;4.896;2024-01-07T07:51:10;97432.69;;;0.40;75.65
46942;BME280;32676;52.630;4.896;2024-01-07T07:53:38;97447.91;;;0.46;75.44
46942;BME280;32676;52.630;4.896;2024-01-07T07:56:05;97463.13;;;0.52;75.33
46942;BME280;32676;52.630;4.896;2024-01-07T07:58:33;97473.31;;;0.55;75.59
46942;BME280;32676;52.630;4.896;2024-01-07T08:00:59;97480.84;;;0.60;75.53
46942;BME280;32676;52.630;4.896;2024-01-07T08:03:26;97470.09;;;0.50;75.46
46942;BME280;32676;52.630;4.896;2024-01-07T08:05:52;97485.16;;;0.59;75.50
46942;BME280;32676;52.630;4.896;2024-01-07T08:08:20;97493.69;;;0.61;75.39
46942;BME280;32676;52.630;4.896;2024-01-07T08:10:46;97500.53;;;0.62;75.32
46942;BME280;32676;52.630;4.896;2024-01-07T08:13:12;97498.03;;;0.61;75.50
46942;BME280;32676;52.630;4.896;2024-01-07T08:15:39;97485.16;;;0.59;75.39
46942;BME280;32676;52.630;4.896;2024-01-07T08:18:05;97471.16;;;0.46;75.43
46942;BME280;32676;52.630;4.896;2024-01-07T08:20:32;97496.34;;;0.60;75.38
46942;BME280;32676;52.630;4.896;2024-01-07T08:22:59;97483.66;;;0.55;75.29
46942;BME280;32676;52.630;4.896;2024-01-07T08:25:27;97503.25;;;0.59;75.36
46942;BME280;32676;52.630;4.896;2024-01-07T08:27:54;97539.78;;;0.70;75.25
46942;BME280;32676;52.630;4.896;2024-01-07T08:30:20;97567.00;;;0.77;75.25
46942;BME280;32676;52.630;4.896;2024-01-07T08:32:47;97589.22;;;0.82;75.05
46942;BME280;32676;52.630;4.896;2024-01-07T08:35:13;97594.38;;;0.82;74.98
46942;BME280;32676;52.630;4.896;2024-01-07T08:37:40;97628.50;;;0.90;74.62
46942;BME280;32676;52.630;4.896;2024-01-07T08:40:07;97638.53;;;0.96;74.39
46942;BME280;32676;52.630;4.896;2024-01-07T08:42:37;97645.06;;;0.86;74.27
46942;BME280;32676;52.630;4.896;2024-01-07T08:45:08;97683.00;;;1.04;74.03
46942;BME280;32676;52.630;4.896;2024-01-07T08:47:35;97699.22;;;1.08;73.75
46942;BME280;32676;52.630;4.896;2024-01-07T08:50:02;97708.56;;;1.10;73.46
46942;BME280;32676;52.630;4.896;2024-01-07T08:52:30;97721.38;;;1.13;73.39
46942;BME280;32676;52.630;4.896;2024-01-07T08:54:57;97726.53;;;1.13;73.44
46942;BME280;32676;52.630;4.896;2024-01-07T08:57:24;97722.69;;;1.03;73.30
46942;BME280;32676;52.630;4.896;2024-01-07T08:59:52;97758.06;;;1.22;73.27
46942;BME280;32676;52.630;4.896;2024-01-07T09:02:19;97760.59;;;1.23;73.41
46942;BME280;32676;52.630;4.896;2024-01-07T09:04:45;97776.81;;;1.27;73.18
46942;BME280;32676;52.630;4.896;2024-01-07T09:07:12;97786.25;;;1.28;73.26
46942;BME280;32676;52.630;4.896;2024-01-07T09:09:41;97776.09;;;1.23;72.94
46942;BME280;32676;52.630;4.896;2024-01-07T09:12:08;97756.94;;;1.08;72.78
46942;BME280;32676;52.630;4.896;2024-01-07T09:14:36;97780.44;;;1.23;72.67
46942;BME280;32676;52.630;4.896;2024-01-07T09:17:04;97798.22;;;1.30;72.47
46942;BME280;32676;52.630;4.896;2024-01-07T09:19:31;97799.97;;;1.30;72.42
46942;BME280;32676;52.630;4.896;2024-01-07T09:21:58;97788.84;;;1.28;72.23
46942;BME280;32676;52.630;4.896;2024-01-07T09:24:24;97780.56;;;1.20;72.04
46942;BME280;32676;52.630;4.896;2024-01-07T09:26:50;97783.81;;;1.25;71.99
46942;BME280;32676;52.630;4.896;2024-01-07T09:29:17;97781.50;;;1.19;71.74
46942;BME280;32676;52.630;4.896;2024-01-07T09:31:44;97783.03;;;1.23;71.77
46942;BME280;32676;52.630;4.896;2024-01-07T09:34:11;97786.38;;;1.25;71.65
46942;BME280;32676;52.630;4.896;2024-01-07T09:36:38;97786.38;;;1.25;71.79
46942;BME280;32676;52.630;4.896;2024-01-07T09:39:04;97799.31;;;1.25;71.92
46942;BME280;32676;52.630;4.896;2024-01-07T09:41:32;97775.94;;;1.07;71.90
46942;BME280;32676;52.630;4.896;2024-01-07T09:43:59;97797.78;;;1.21;71.82
46942;BME280;32676;52.630;4.896;2024-01-07T09:46:28;97812.91;;;1.30;71.72
46942;BME280;32676;52.630;4.896;2024-01-07T09:48:55;97814.56;;;1.31;71.61
46942;BME280;32676;52.630;4.896;2024-01-07T09:51:23;97829.13;;;1.33;71.51
46942;BME280;32676;52.630;4.896;2024-01-07T09:53:54;97820.59;;;1.31;70.90
46942;BME280;32676;52.630;4.896;2024-01-07T09:56:25;97818.06;;;1.30;70.73
46942;BME280;32676;52.630;4.896;2024-01-07T09:58:52;97822.72;;;1.22;70.89
46942;BME280;32676;52.630;4.896;2024-01-07T10:01:19;97830.06;;;1.31;70.69
46942;BME280;32676;52.630;4.896;2024-01-07T10:03:45;97830.94;;;1.31;70.83
46942;BME280;32676;52.630;4.896;2024-01-07T10:06:12;97825.81;;;1.30;70.62
46942;BME280;32676;52.630;4.896;2024-01-07T10:08:40;97835.19;;;1.32;70.69
46942;BME280;32676;52.630;4.896;2024-01-07T10:11:07;97837.78;;;1.32;70.45
46942;BME280;32676;52.630;4.896;2024-01-07T10:13:34;97832.59;;;1.32;70.68
46942;BME280;32676;52.630;4.896;2024-01-07T10:16:01;97826.72;;;1.29;70.57
46942;BME280;32676;52.630;4.896;2024-01-07T10:18:28;97830.94;;;1.31;70.51
46942;BME280;32676;52.630;4.896;2024-01-07T10:21:01;97849.75;;;1.35;70.45
46942;BME280;32676;52.630;4.896;2024-01-07T10:23:28;97869.41;;;1.39;70.43
46942;BME280;32676;52.630;4.896;2024-01-07T10:25:57;97886.47;;;1.43;70.56
46942;BME280;32676;52.630;4.896;2024-01-07T10:28:24;97880.75;;;1.37;70.57
46942;BME280;32676;52.630;4.896;2024-01-07T10:30:50;97897.81;;;1.41;70.64
46942;BME280;32676;52.630;4.896;2024-01-07T10:33:17;97868.88;;;1.31;70.58
46942;BME280;32676;52.630;4.896;2024-01-07T10:35:49;97850.66;;;1.34;70.27
46942;BME280;32676;52.630;4.896;2024-01-07T10:38:18;97820.28;;;1.19;69.93
46942;BME280;32676;52.630;4.896;2024-01-07T10:40:47;97806.44;;;1.20;69.70
46942;BME280;32676;52.630;4.896;2024-01-07T10:43:19;97779.94;;;1.14;69.46
46942;BME280;32676;52.630;4.896;2024-01-07T10:45:47;97759.72;;;1.04;69.34
46942;BME280;32676;52.630;4.896;2024-01-07T10:48:17;97769.22;;;1.03;69.15
46942;BME280;32676;52.630;4.896;2024-01-07T10:50:44;97809.09;;;1.18;69.07
46942;BME280;32676;52.630;4.896;2024-01-07T10:53:17;97806.44;;;1.20;69.09
46942;BME280;32676;52.630;4.896;2024-01-07T10:55:49;97796.50;;;1.10;69.02
46942;BME280;32676;52.630;4.896;2024-01-07T10:58:21;97779.44;;;1.06;68.80
46942;BME280;32676;52.630;4.896;2024-01-07T11:00:48;97802.25;;;1.17;68.47
46942;BME280;32676;52.630;4.896;2024-01-07T11:03:18;97806.59;;;1.17;68.08
46942;BME280;32676;52.630;4.896;2024-01-07T11:05:49;97815.13;;;1.19;67.98
46942;BME280;32676;52.630;4.896;2024-01-07T11:08:20;97824.47;;;1.21;67.88
46942;BME280;32676;52.630;4.896;2024-01-07T11:10:51;97841.47;;;1.27;67.60
46942;BME280;32676;52.630;4.896;2024-01-07T11:13:39;97876.53;;;1.34;67.58
46942;BME280;32676;52.630;4.896;2024-01-07T11:16:06;97859.56;;;1.27;67.69
46942;BME280;32676;52.630;4.896;2024-01-07T11:18:38;97868.09;;;1.29;67.44
46942;BME280;32676;52.630;4.896;2024-01-07T11:21:06;97884.16;;;1.37;67.12
46942;BME280;32676;52.630;4.896;2024-01-07T11:23:34;97884.41;;;1.31;67.19
46942;BME280;32676;52.630;4.896;2024-01-07T11:26:03;97915.69;;;1.45;67.18
46942;BME280;32676;52.630;4.896;2024-01-07T11:28:47;97933.69;;;1.48;67.03
46942;BME280;32676;52.630;4.896;2024-01-07T11:31:16;97948.31;;;1.49;67.07
46942;BME280;32676;52.630;4.896;2024-01-07T11:33:43;97936.56;;;1.42;66.80
46942;BME280;32676;52.630;4.896;2024-01-07T11:36:11;97956.09;;;1.49;66.72
46942;BME280;32676;52.630;4.896;2024-01-07T11:38:38;97943.16;;;1.49;66.70
46942;BME280;32676;52.630;4.896;2024-01-07T11:41:05;97940.63;;;1.48;66.55
46942;BME280;32676;52.630;4.896;2024-01-07T11:43:32;97964.41;;;1.56;66.53
46942;BME280;32676;52.630;4.896;2024-01-07T11:46:01;97985.81;;;1.60;66.52
46942;BME280;32676;52.630;4.896;2024-01-07T11:48:27;97968.88;;;1.52;66.50
46942;BME280;32676;52.630;4.896;2024-01-07T11:50:54;97955.16;;;1.50;66.36
46942;BME280;32676;52.630;4.896;2024-01-07T11:53:20;97938.09;;;1.46;66.09
46942;BME280;32676;52.630;4.896;2024-01-07T11:55:48;97940.69;;;1.46;65.95
46942;BME280;32676;52.630;4.896;2024-01-07T11:58:14;97945.91;;;1.45;65.82
46942;BME280;32676;52.630;4.896;2024-01-07T12:00:41;97965.63;;;1.47;66.01
46942;BME280;32676;52.630;4.896;2024-01-07T12:03:09;97989.47;;;1.56;66.12
46942;BME280;32676;52.630;4.896;2024-01-07T12:05:35;97998.72;;;1.61;66.19
46942;BME280;32676;52.630;4.896;2024-01-07T12:08:02;97994.91;;;1.49;66.13
46942;BME280;32676;52.630;4.896;2024-01-07T12:10:29;97993.47;;;1.42;66.07
46942;BME280;32676;52.630;4.896;2024-01-07T12:12:56;98026.03;;;1.68;65.82
46942;BME280;32676;52.630;4.896;2024-01-07T12:15:22;98015.44;;;1.52;65.84
46942;BME280;32676;52.630;4.896;2024-01-07T12:17:56;98036.44;;;1.67;65.85
46942;BME280;32676;52.630;4.896;2024-01-07T12:20:25;98044.97;;;1.69;65.80
46942;BME280;32676;52.630;4.896;2024-01-07T12:22:52;98049.25;;;1.70;65.71
46942;BME280;32676;52.630;4.896;2024-01-07T12:25:22;98046.72;;;1.68;65.70
46942;BME280;32676;52.630;4.896;2024-01-07T12:27:49;98017.16;;;1.53;65.70
46942;BME280;32676;52.630;4.896;2024-01-07T12:30:18;98035.00;;;1.60;66.00
46942;BME280;32676;52.630;4.896;2024-01-07T12:32:45;98047.56;;;1.69;65.99
46942;BME280;32676;52.630;4.896;2024-01-07T12:35:12;98018.69;;;1.58;65.99
46942;BME280;32676;52.630;4.896;2024-01-07T12:37:40;97998.13;;;1.54;65.74
46942;BME280;32676;52.630;4.896;2024-01-07T12:40:09;97951.53;;;1.34;65.75
46942;BME280;32676;52.630;4.896;2024-01-07T12:42:37;97977.69;;;1.48;65.34
46942;BME280;32676;52.630;4.896;2024-01-07T12:45:06;97971.72;;;1.46;65.37
46942;BME280;32676;52.630;4.896;2024-01-07T12:47:33;97952.19;;;1.39;65.44
46942;BME280;32676;52.630;4.896;2024-01-07T12:50:00;97926.72;;;1.30;65.46
46942;BME280;32676;52.630;4.896;2024-01-07T12:52:26;97926.59;;;1.33;65.53
46942;BME280;32676;52.630;4.896;2024-01-07T12:54:55;97946.19;;;1.39;65.47
46942;BME280;32676;52.630;4.896;2024-01-07T12:57:22;97958.91;;;1.43;65.46
46942;BME280;32676;52.630;4.896;2024-01-07T12:59:48;98023.81;;;1.59;65.65
46942;BME280;32676;52.630;4.896;2024-01-07T13:02:15;98063.09;;;1.69;65.84
46942;BME280;32676;52.630;4.896;2024-01-07T13:04:41;98086.31;;;1.70;66.04
46942;BME280;32676;52.630;4.896;2024-01-07T13:07:08;98086.38;;;1.69;65.94
46942;BME280;32676;52.630;4.896;2024-01-07T13:09:35;98098.94;;;1.78;65.79